sensor_id;sensor_type;location;lat;lon;timestamp;P1;durP1;ratioP1;P2;durP2;ratioP2
73684;SDS011;61985;51.070;14.064;2022-07-29T00:00:02;3.65;;;1.85;;
73684;SDS011;61985;51.070;14.064;2022-07-29T00:02:29;4.15;;;1.95;;
73684;SDS011;61985;51.070;14.064;2022-07-29T00:04:56;4.43;;;2.00;;
73684;SDS011;61985;51.070;14.064;2022-07-29T00:07:22;4.90;;;2.13;;
73684;SDS011;61985;51.070;14.064;2022-07-29T00:09:47;4.22;;;1.90;;
73684;SDS011;61985;51.070;14.064;2022-07-29T00:12:12;6.68;;;2.03;;
73684;SDS011;61985;51.070;14.064;2022-07-29T00:14:37;5.18;;;1.77;;
73684;SDS011;61985;51.070;14.064;2022-07-29T00:17:03;4.32;;;1.85;;
73684;SDS011;61985;51.070;14.064;2022-07-29T00:19:28;3.25;;;1.70;;
73684;SDS011;61985;51.070;14.064;2022-07-29T00:21:54;3.97;;;1.90;;
73684;SDS011;61985;51.070;14.064;2022-07-29T00:24:19;3.33;;;1.73;;
73684;SDS011;61985;51.070;14.064;2022-07-29T00:26:44;5.40;;;1.88;;
73684;SDS011;61985;51.070;14.064;2022-07-29T00:29:10;6.88;;;1.95;;
73684;SDS011;61985;51.070;14.064;2022-07-29T00:31:35;3.25;;;1.80;;
73684;SDS011;61985;51.070;14.064;2022-07-29T00:34:01;6.72;;;1.90;;
73684;SDS011;61985;51.070;14.064;2022-07-29T00:36:27;4.15;;;1.92;;
73684;SDS011;61985;51.070;14.064;2022-07-29T00:38:52;8.02;;;2.10;;
73684;SDS011;61985;51.070;14.064;2022-07-29T00:41:18;7.03;;;2.03;;
73684;SDS011;61985;51.070;14.064;2022-07-29T00:43:44;4.65;;;1.70;;
73684;SDS011;61985;51.070;14.064;2022-07-29T00:46:10;3.33;;;1.65;;
73684;SDS011;61985;51.070;14.064;2022-07-29T00:48:36;4.47;;;1.75;;
73684;SDS011;61985;51.070;14.064;2022-07-29T00:51:02;8.98;;;2.13;;
73684;SDS011;61985;51.070;14.064;2022-07-29T00:53:29;6.78;;;2.17;;
73684;SDS011;61985;51.070;14.064;2022-07-29T00:55:55;4.05;;;1.80;;
73684;SDS011;61985;51.070;14.064;2022-07-29T00:58:21;4.57;;;2.20;;
73684;SDS011;61985;51.070;14.064;2022-07-29T01:00:47;4.28;;;2.08;;
73684;SDS011;61985;51.070;14.064;2022-07-29T01:03:12;4.68;;;1.90;;
73684;SDS011;61985;51.070;14.064;2022-07-29T01:05:38;5.43;;;2.00;;
73684;SDS011;61985;51.070;14.064;2022-07-29T01:08:05;8.75;;;2.90;;
73684;SDS011;61985;51.070;14.064;2022-07-29T01:10:31;3.85;;;2.20;;
73684;SDS011;61985;51.070;14.064;2022-07-29T01:12:58;8.05;;;2.28;;
73684;SDS011;61985;51.070;14.064;2022-07-29T01:15:24;8.45;;;2.33;;
73684;SDS011;61985;51.070;14.064;2022-07-29T01:18:01;7.95;;;1.98;;
73684;SDS011;61985;51.070;14.064;2022-07-29T01:25:54;8.45;;;2.33;;
73684;SDS011;61985;51.070;14.064;2022-07-29T01:31:19;3.72;;;2.20;;
73684;SDS011;61985;51.070;14.064;2022-07-29T01:33:50;7.57;;;2.17;;
73684;SDS011;61985;51.070;14.064;2022-07-29T01:36:23;9.63;;;3.10;;
73684;SDS011;61985;51.070;14.064;2022-07-29T01:39:02;4.93;;;2.10;;
73684;SDS011;61985;51.070;14.064;2022-07-29T01:41:36;4.75;;;2.00;;
73684;SDS011;61985;51.070;14.064;2022-07-29T01:44:17;6.40;;;2.40;;
73684;SDS011;61985;51.070;14.064;2022-07-29T01:46:49;6.97;;;2.67;;
73684;SDS011;61985;51.070;14.064;2022-07-29T01:49:27;4.93;;;2.15;;
73684;SDS011;61985;51.070;14.064;2022-07-29T01:51:57;7.28;;;2.70;;
73684;SDS011;61985;51.070;14.064;2022-07-29T01:54:37;4.07;;;2.08;;
73684;SDS011;61985;51.070;14.064;2022-07-29T01:57:11;6.50;;;2.45;;
73684;SDS011;61985;51.070;14.064;2022-07-29T01:59:38;4.82;;;2.20;;
73684;SDS011;61985;51.070;14.064;2022-07-29T02:02:06;7.55;;;2.53;;
73684;SDS011;61985;51.070;14.064;2022-07-29T02:04:35;6.80;;;2.50;;
73684;SDS011;61985;51.070;14.064;2022-07-29T02:07:03;4.90;;;2.20;;
73684;SDS011;61985;51.070;14.064;2022-07-29T02:09:32;3.85;;;2.08;;
73684;SDS011;61985;51.070;14.064;2022-07-29T02:12:00;9.65;;;2.33;;
73684;SDS011;61985;51.070;14.064;2022-07-29T02:14:28;3.42;;;2.05;;
73684;SDS011;61985;51.070;14.064;2022-07-29T02:16:58;5.53;;;2.03;;
73684;SDS011;61985;51.070;14.064;2022-07-29T02:19:25;6.47;;;2.40;;
73684;SDS011;61985;51.070;14.064;2022-07-29T02:21:53;9.50;;;2.22;;
73684;SDS011;61985;51.070;14.064;2022-07-29T02:24:19;4.75;;;2.22;;
73684;SDS011;61985;51.070;14.064;2022-07-29T02:26:47;6.40;;;2.05;;
73684;SDS011;61985;51.070;14.064;2022-07-29T02:29:14;12.10;;;2.50;;
73684;SDS011;61985;51.070;14.064;2022-07-29T02:31:40;8.50;;;2.35;;
73684;SDS011;61985;51.070;14.064;2022-07-29T02:34:08;8.45;;;2.20;;
73684;SDS011;61985;51.070;14.064;2022-07-29T02:36:35;6.53;;;2.10;;
73684;SDS011;61985;51.070;14.064;2022-07-29T02:39:01;6.35;;;2.17;;
73684;SDS011;61985;51.070;14.064;2022-07-29T02:44:16;4.53;;;2.60;;
73684;SDS011;61985;51.070;14.064;2022-07-29T02:46:54;9.13;;;2.72;;
73684;SDS011;61985;51.070;14.064;2022-07-29T02:49:35;9.77;;;2.20;;
73684;SDS011;61985;51.070;14.064;2022-07-29T02:52:04;13.73;;;2.78;;
73684;SDS011;61985;51.070;14.064;2022-07-29T02:54:37;9.10;;;2.40;;
73684;SDS011;61985;51.070;14.064;2022-07-29T02:59:58;5.63;;;2.30;;
73684;SDS011;61985;51.070;14.064;2022-07-29T03:02:28;3.75;;;2.28;;
73684;SDS011;61985;51.070;14.064;2022-07-29T03:04:59;6.65;;;2.72;;
73684;SDS011;61985;51.070;14.064;2022-07-29T03:07:26;5.88;;;2.28;;
73684;SDS011;61985;51.070;14.064;2022-07-29T03:09:52;5.22;;;2.05;;
73684;SDS011;61985;51.070;14.064;2022-07-29T03:12:18;8.27;;;2.00;;
73684;SDS011;61985;51.070;14.064;2022-07-29T03:14:44;7.85;;;2.15;;
73684;SDS011;61985;51.070;14.064;2022-07-29T03:17:11;5.38;;;2.10;;
73684;SDS011;61985;51.070;14.064;2022-07-29T03:19:36;5.68;;;2.35;;
73684;SDS011;61985;51.070;14.064;2022-07-29T03:22:02;5.05;;;2.58;;
73684;SDS011;61985;51.070;14.064;2022-07-29T03:24:32;4.10;;;2.10;;
73684;SDS011;61985;51.070;14.064;2022-07-29T03:26:59;8.73;;;2.42;;
73684;SDS011;61985;51.070;14.064;2022-07-29T03:29:25;5.20;;;2.10;;
73684;SDS011;61985;51.070;14.064;2022-07-29T03:31:51;5.35;;;2.17;;
73684;SDS011;61985;51.070;14.064;2022-07-29T03:34:18;8.65;;;2.15;;
73684;SDS011;61985;51.070;14.064;2022-07-29T03:36:44;3.90;;;2.00;;
73684;SDS011;61985;51.070;14.064;2022-07-29T03:39:09;7.68;;;2.60;;
73684;SDS011;61985;51.070;14.064;2022-07-29T03:41:37;5.70;;;2.33;;
73684;SDS011;61985;51.070;14.064;2022-07-29T03:44:05;7.15;;;2.03;;
73684;SDS011;61985;51.070;14.064;2022-07-29T03:46:31;4.70;;;2.03;;
73684;SDS011;61985;51.070;14.064;2022-07-29T03:48:59;5.97;;;2.30;;
73684;SDS011;61985;51.070;14.064;2022-07-29T03:51:27;7.70;;;2.50;;
73684;SDS011;61985;51.070;14.064;2022-07-29T03:53:53;6.88;;;2.40;;
73684;SDS011;61985;51.070;14.064;2022-07-29T03:56:19;5.25;;;2.25;;
73684;SDS011;61985;51.070;14.064;2022-07-29T03:58:48;9.85;;;2.35;;
73684;SDS011;61985;51.070;14.064;2022-07-29T04:01:16;5.13;;;1.83;;
73684;SDS011;61985;51.070;14.064;2022-07-29T04:03:43;10.05;;;2.45;;
73684;SDS011;61985;51.070;14.064;2022-07-29T04:06:10;4.78;;;2.00;;
73684;SDS011;61985;51.070;14.064;2022-07-29T04:08:36;4.95;;;2.10;;
73684;SDS011;61985;51.070;14.064;2022-07-29T04:11:02;3.65;;;2.08;;
73684;SDS011;61985;51.070;14.064;2022-07-29T04:13:28;4.15;;;2.10;;
73684;SDS011;61985;51.070;14.064;2022-07-29T04:15:53;7.13;;;2.50;;
73684;SDS011;61985;51.070;14.064;2022-07-29T04:18:19;6.38;;;2.42;;
73684;SDS011;61985;51.070;14.064;2022-07-29T04:20:44;10.32;;;2.40;;
73684;SDS011;61985;51.070;14.064;2022-07-29T04:23:09;6.20;;;2.90;;
73684;SDS011;61985;51.070;14.064;2022-07-29T04:25:39;5.88;;;2.30;;
73684;SDS011;61985;51.070;14.064;2022-07-29T04:28:05;6.35;;;2.47;;
73684;SDS011;61985;51.070;14.064;2022-07-29T04:30:32;5.78;;;2.38;;
73684;SDS011;61985;51.070;14.064;2022-07-29T04:32:58;6.05;;;2.85;;
73684;SDS011;61985;51.070;14.064;2022-07-29T04:35:25;4.68;;;2.40;;
73684;SDS011;61985;51.070;14.064;2022-07-29T04:37:51;6.95;;;2.72;;
73684;SDS011;61985;51.070;14.064;2022-07-29T04:40:17;6.10;;;2.53;;
73684;SDS011;61985;51.070;14.064;2022-07-29T04:42:42;9.18;;;2.30;;
73684;SDS011;61985;51.070;14.064;2022-07-29T04:45:07;4.03;;;2.30;;
73684;SDS011;61985;51.070;14.064;2022-07-29T04:47:33;5.90;;;2.20;;
73684;SDS011;61985;51.070;14.064;2022-07-29T04:49:58;3.03;;;2.10;;
73684;SDS011;61985;51.070;14.064;2022-07-29T04:52:24;5.13;;;2.20;;
73684;SDS011;61985;51.070;14.064;2022-07-29T04:54:49;4.10;;;1.90;;
73684;SDS011;61985;51.070;14.064;2022-07-29T04:57:14;4.53;;;2.20;;
73684;SDS011;61985;51.070;14.064;2022-07-29T04:59:40;3.65;;;2.10;;
73684;SDS011;61985;51.070;14.064;2022-07-29T05:02:05;4.20;;;2.33;;
73684;SDS011;61985;51.070;14.064;2022-07-29T05:04:30;4.45;;;2.28;;
73684;SDS011;61985;51.070;14.064;2022-07-29T05:06:56;5.70;;;2.42;;
73684;SDS011;61985;51.070;14.064;2022-07-29T05:09:21;5.05;;;2.30;;
73684;SDS011;61985;51.070;14.064;2022-07-29T05:11:46;4.97;;;2.20;;
73684;SDS011;61985;51.070;14.064;2022-07-29T05:14:12;8.93;;;2.38;;
73684;SDS011;61985;51.070;14.064;2022-07-29T05:16:37;7.47;;;2.50;;
73684;SDS011;61985;51.070;14.064;2022-07-29T05:19:04;5.30;;;2.05;;
73684;SDS011;61985;51.070;14.064;2022-07-29T05:21:30;4.78;;;2.30;;
73684;SDS011;61985;51.070;14.064;2022-07-29T05:23:55;6.85;;;2.30;;
73684;SDS011;61985;51.070;14.064;2022-07-29T05:26:20;5.53;;;2.40;;
73684;SDS011;61985;51.070;14.064;2022-07-29T05:28:46;4.68;;;2.10;;
73684;SDS011;61985;51.070;14.064;2022-07-29T05:31:20;5.18;;;2.40;;
73684;SDS011;61985;51.070;14.064;2022-07-29T05:33:45;6.00;;;2.40;;
73684;SDS011;61985;51.070;14.064;2022-07-29T05:36:10;4.50;;;2.30;;
73684;SDS011;61985;51.070;14.064;2022-07-29T05:38:36;7.63;;;2.20;;
73684;SDS011;61985;51.070;14.064;2022-07-29T05:41:02;3.63;;;2.17;;
73684;SDS011;61985;51.070;14.064;2022-07-29T05:43:28;5.60;;;2.30;;
73684;SDS011;61985;51.070;14.064;2022-07-29T05:45:54;4.03;;;2.08;;
73684;SDS011;61985;51.070;14.064;2022-07-29T05:48:20;5.90;;;2.13;;
73684;SDS011;61985;51.070;14.064;2022-07-29T05:50:45;6.30;;;2.28;;
73684;SDS011;61985;51.070;14.064;2022-07-29T05:53:11;6.30;;;2.30;;
73684;SDS011;61985;51.070;14.064;2022-07-29T05:55:36;3.42;;;2.15;;
73684;SDS011;61985;51.070;14.064;2022-07-29T05:58:01;7.10;;;2.30;;
73684;SDS011;61985;51.070;14.064;2022-07-29T06:00:27;5.45;;;1.83;;
73684;SDS011;61985;51.070;14.064;2022-07-29T06:02:52;6.82;;;2.13;;
73684;SDS011;61985;51.070;14.064;2022-07-29T06:05:18;7.68;;;2.28;;
73684;SDS011;61985;51.070;14.064;2022-07-29T06:07:43;5.28;;;2.15;;
73684;SDS011;61985;51.070;14.064;2022-07-29T06:10:09;8.30;;;2.00;;
73684;SDS011;61985;51.070;14.064;2022-07-29T06:12:34;4.10;;;2.08;;
73684;SDS011;61985;51.070;14.064;2022-07-29T06:14:59;4.30;;;2.00;;
73684;SDS011;61985;51.070;14.064;2022-07-29T06:17:25;8.57;;;2.05;;
73684;SDS011;61985;51.070;14.064;2022-07-29T06:19:50;3.90;;;2.00;;
73684;SDS011;61985;51.070;14.064;2022-07-29T06:22:16;4.43;;;2.10;;
73684;SDS011;61985;51.070;14.064;2022-07-29T06:24:42;4.68;;;2.03;;
73684;SDS011;61985;51.070;14.064;2022-07-29T06:27:09;6.35;;;2.47;;
73684;SDS011;61985;51.070;14.064;2022-07-29T06:29:37;7.15;;;2.97;;
73684;SDS011;61985;51.070;14.064;2022-07-29T06:32:02;5.82;;;2.13;;
73684;SDS011;61985;51.070;14.064;2022-07-29T06:34:28;5.65;;;2.33;;
73684;SDS011;61985;51.070;14.064;2022-07-29T06:36:53;4.88;;;2.33;;
73684;SDS011;61985;51.070;14.064;2022-07-29T06:39:19;5.20;;;2.50;;
73684;SDS011;61985;51.070;14.064;2022-07-29T06:41:48;9.40;;;2.30;;
73684;SDS011;61985;51.070;14.064;2022-07-29T06:44:14;5.13;;;2.00;;
73684;SDS011;61985;51.070;14.064;2022-07-29T06:46:40;4.90;;;1.98;;
73684;SDS011;61985;51.070;14.064;2022-07-29T06:49:06;7.80;;;2.13;;
73684;SDS011;61985;51.070;14.064;2022-07-29T06:51:32;5.15;;;1.92;;
73684;SDS011;61985;51.070;14.064;2022-07-29T06:53:57;12.65;;;2.10;;
73684;SDS011;61985;51.070;14.064;2022-07-29T06:56:23;9.13;;;2.40;;
73684;SDS011;61985;51.070;14.064;2022-07-29T06:58:48;7.07;;;2.47;;
73684;SDS011;61985;51.070;14.064;2022-07-29T07:01:14;6.00;;;2.25;;
73684;SDS011;61985;51.070;14.064;2022-07-29T07:03:39;8.02;;;2.38;;
73684;SDS011;61985;51.070;14.064;2022-07-29T07:06:05;11.10;;;2.15;;
73684;SDS011;61985;51.070;14.064;2022-07-29T07:08:30;11.27;;;2.33;;
73684;SDS011;61985;51.070;14.064;2022-07-29T07:10:55;6.55;;;2.30;;
73684;SDS011;61985;51.070;14.064;2022-07-29T07:13:22;8.07;;;2.25;;
73684;SDS011;61985;51.070;14.064;2022-07-29T07:15:47;7.35;;;1.98;;
73684;SDS011;61985;51.070;14.064;2022-07-29T07:18:13;8.95;;;2.25;;
73684;SDS011;61985;51.070;14.064;2022-07-29T07:20:40;7.70;;;2.28;;
73684;SDS011;61985;51.070;14.064;2022-07-29T07:23:05;5.40;;;2.30;;
73684;SDS011;61985;51.070;14.064;2022-07-29T07:25:31;10.35;;;2.75;;
73684;SDS011;61985;51.070;14.064;2022-07-29T07:27:56;5.80;;;2.40;;
73684;SDS011;61985;51.070;14.064;2022-07-29T07:30:22;3.58;;;2.10;;
73684;SDS011;61985;51.070;14.064;2022-07-29T07:32:50;6.80;;;2.50;;
73684;SDS011;61985;51.070;14.064;2022-07-29T07:35:16;4.95;;;2.03;;
73684;SDS011;61985;51.070;14.064;2022-07-29T07:37:41;5.78;;;2.15;;
73684;SDS011;61985;51.070;14.064;2022-07-29T07:40:07;4.95;;;2.08;;
73684;SDS011;61985;51.070;14.064;2022-07-29T07:42:34;8.57;;;2.10;;
73684;SDS011;61985;51.070;14.064;2022-07-29T07:45:00;5.85;;;2.60;;
73684;SDS011;61985;51.070;14.064;2022-07-29T07:47:25;6.85;;;2.53;;
73684;SDS011;61985;51.070;14.064;2022-07-29T07:49:51;5.68;;;2.50;;
73684;SDS011;61985;51.070;14.064;2022-07-29T07:52:20;4.70;;;2.08;;
73684;SDS011;61985;51.070;14.064;2022-07-29T07:54:55;7.80;;;2.30;;
73684;SDS011;61985;51.070;14.064;2022-07-29T07:57:26;6.03;;;2.58;;
73684;SDS011;61985;51.070;14.064;2022-07-29T07:59:54;3.78;;;2.22;;
73684;SDS011;61985;51.070;14.064;2022-07-29T08:02:31;4.72;;;2.25;;
73684;SDS011;61985;51.070;14.064;2022-07-29T08:05:07;5.35;;;2.60;;
73684;SDS011;61985;51.070;14.064;2022-07-29T08:07:40;2.53;;;2.03;;
73684;SDS011;61985;51.070;14.064;2022-07-29T08:10:05;4.35;;;2.38;;
73684;SDS011;61985;51.070;14.064;2022-07-29T08:12:31;4.80;;;2.45;;
73684;SDS011;61985;51.070;14.064;2022-07-29T08:15:10;6.20;;;2.65;;
73684;SDS011;61985;51.070;14.064;2022-07-29T08:20:09;4.10;;;2.30;;
73684;SDS011;61985;51.070;14.064;2022-07-29T08:22:56;3.88;;;2.20;;
73684;SDS011;61985;51.070;14.064;2022-07-29T08:25:25;5.57;;;2.35;;
73684;SDS011;61985;51.070;14.064;2022-07-29T08:27:58;5.15;;;2.30;;
73684;SDS011;61985;51.070;14.064;2022-07-29T08:30:24;4.28;;;2.53;;
73684;SDS011;61985;51.070;14.064;2022-07-29T08:32:55;5.32;;;2.20;;
73684;SDS011;61985;51.070;14.064;2022-07-29T08:35:22;4.05;;;2.30;;
73684;SDS011;61985;51.070;14.064;2022-07-29T08:37:48;6.05;;;2.20;;
73684;SDS011;61985;51.070;14.064;2022-07-29T08:40:14;5.93;;;2.30;;
73684;SDS011;61985;51.070;14.064;2022-07-29T08:42:52;7.72;;;2.33;;
73684;SDS011;61985;51.070;14.064;2022-07-29T08:45:45;8.73;;;2.55;;
73684;SDS011;61985;51.070;14.064;2022-07-29T08:48:18;4.50;;;2.20;;
73684;SDS011;61985;51.070;14.064;2022-07-29T08:50:52;6.43;;;2.17;;
73684;SDS011;61985;51.070;14.064;2022-07-29T08:53:24;219.13;;;17.45;;
73684;SDS011;61985;51.070;14.064;2022-07-29T08:56:05;4.20;;;2.20;;
73684;SDS011;61985;51.070;14.064;2022-07-29T08:58:32;7.85;;;2.65;;
73684;SDS011;61985;51.070;14.064;2022-07-29T09:00:59;5.72;;;2.20;;
73684;SDS011;61985;51.070;14.064;2022-07-29T09:03:31;6.30;;;2.50;;
73684;SDS011;61985;51.070;14.064;2022-07-29T09:06:06;5.72;;;2.40;;
73684;SDS011;61985;51.070;14.064;2022-07-29T09:08:38;8.35;;;2.50;;
73684;SDS011;61985;51.070;14.064;2022-07-29T09:13:54;5.85;;;2.28;;
73684;SDS011;61985;51.070;14.064;2022-07-29T09:16:19;6.45;;;2.17;;
73684;SDS011;61985;51.070;14.064;2022-07-29T09:18:48;11.25;;;2.45;;
73684;SDS011;61985;51.070;14.064;2022-07-29T09:21:16;4.40;;;2.30;;
73684;SDS011;61985;51.070;14.064;2022-07-29T09:24:02;17.92;;;10.85;;
73684;SDS011;61985;51.070;14.064;2022-07-29T09:26:36;6.45;;;2.40;;
73684;SDS011;61985;51.070;14.064;2022-07-29T09:29:08;9.25;;;2.60;;
73684;SDS011;61985;51.070;14.064;2022-07-29T09:31:37;10.13;;;2.50;;
73684;SDS011;61985;51.070;14.064;2022-07-29T09:34:04;4.95;;;2.35;;
73684;SDS011;61985;51.070;14.064;2022-07-29T09:36:30;10.95;;;2.47;;
73684;SDS011;61985;51.070;14.064;2022-07-29T09:39:02;8.10;;;2.58;;
73684;SDS011;61985;51.070;14.064;2022-07-29T09:41:28;4.57;;;2.40;;
73684;SDS011;61985;51.070;14.064;2022-07-29T09:43:55;7.80;;;2.65;;
73684;SDS011;61985;51.070;14.064;2022-07-29T09:46:24;5.65;;;2.20;;
73684;SDS011;61985;51.070;14.064;2022-07-29T09:51:44;5.60;;;2.33;;
73684;SDS011;61985;51.070;14.064;2022-07-29T09:54:23;6.20;;;2.05;;
73684;SDS011;61985;51.070;14.064;2022-07-29T09:56:55;10.52;;;2.22;;
73684;SDS011;61985;51.070;14.064;2022-07-29T09:59:21;9.80;;;2.50;;
73684;SDS011;61985;51.070;14.064;2022-07-29T10:01:49;8.75;;;2.50;;
73684;SDS011;61985;51.070;14.064;2022-07-29T10:04:38;5.45;;;2.20;;
73684;SDS011;61985;51.070;14.064;2022-07-29T10:07:14;8.10;;;2.40;;
73684;SDS011;61985;51.070;14.064;2022-07-29T10:09:39;6.75;;;2.50;;
73684;SDS011;61985;51.070;14.064;2022-07-29T10:12:23;5.15;;;2.40;;
73684;SDS011;61985;51.070;14.064;2022-07-29T10:15:03;10.52;;;2.53;;
73684;SDS011;61985;51.070;14.064;2022-07-29T10:17:28;10.90;;;2.50;;
73684;SDS011;61985;51.070;14.064;2022-07-29T10:19:59;11.60;;;2.80;;
73684;SDS011;61985;51.070;14.064;2022-07-29T10:22:28;5.68;;;2.50;;
73684;SDS011;61985;51.070;14.064;2022-07-29T10:25:25;7.20;;;2.60;;
73684;SDS011;61985;51.070;14.064;2022-07-29T10:27:54;5.97;;;2.40;;
73684;SDS011;61985;51.070;14.064;2022-07-29T10:30:20;6.60;;;2.67;;
73684;SDS011;61985;51.070;14.064;2022-07-29T10:38:59;6.82;;;2.33;;
73684;SDS011;61985;51.070;14.064;2022-07-29T10:44:39;9.95;;;2.75;;
73684;SDS011;61985;51.070;14.064;2022-07-29T10:47:08;7.93;;;2.50;;
73684;SDS011;61985;51.070;14.064;2022-07-29T10:49:56;6.18;;;2.70;;
73684;SDS011;61985;51.070;14.064;2022-07-29T10:53:07;9.23;;;2.75;;
73684;SDS011;61985;51.070;14.064;2022-07-29T10:58:23;3.90;;;2.40;;
73684;SDS011;61985;51.070;14.064;2022-07-29T11:03:56;6.28;;;2.90;;
73684;SDS011;61985;51.070;14.064;2022-07-29T11:07:12;6.60;;;2.83;;
73684;SDS011;61985;51.070;14.064;2022-07-29T11:09:30;8.50;;;2.90;;
73684;SDS011;61985;51.070;14.064;2022-07-29T11:12:04;7.75;;;4.28;;
73684;SDS011;61985;51.070;14.064;2022-07-29T11:15:07;8.98;;;3.90;;
73684;SDS011;61985;51.070;14.064;2022-07-29T11:28:51;6.50;;;3.40;;
73684;SDS011;61985;51.070;14.064;2022-07-29T11:37:22;14.18;;;5.72;;
73684;SDS011;61985;51.070;14.064;2022-07-29T11:47:49;10.63;;;5.40;;
73684;SDS011;61985;51.070;14.064;2022-07-29T11:52:57;14.50;;;8.15;;
73684;SDS011;61985;51.070;14.064;2022-07-29T11:55:26;12.02;;;5.47;;
73684;SDS011;61985;51.070;14.064;2022-07-29T11:57:55;14.38;;;5.70;;
73684;SDS011;61985;51.070;14.064;2022-07-29T12:00:37;13.07;;;7.00;;
73684;SDS011;61985;51.070;14.064;2022-07-29T12:03:05;11.48;;;6.60;;
73684;SDS011;61985;51.070;14.064;2022-07-29T12:05:43;17.02;;;7.50;;
73684;SDS011;61985;51.070;14.064;2022-07-29T12:08:13;18.77;;;8.98;;
73684;SDS011;61985;51.070;14.064;2022-07-29T12:10:46;16.23;;;10.25;;
73684;SDS011;61985;51.070;14.064;2022-07-29T12:13:13;6.68;;;4.05;;
73684;SDS011;61985;51.070;14.064;2022-07-29T12:15:40;7.93;;;4.65;;
73684;SDS011;61985;51.070;14.064;2022-07-29T12:18:15;6.63;;;4.45;;
73684;SDS011;61985;51.070;14.064;2022-07-29T12:20:42;10.75;;;4.63;;
73684;SDS011;61985;51.070;14.064;2022-07-29T12:23:08;6.53;;;3.90;;
73684;SDS011;61985;51.070;14.064;2022-07-29T12:25:36;9.02;;;4.88;;
73684;SDS011;61985;51.070;14.064;2022-07-29T12:28:04;10.77;;;4.78;;
73684;SDS011;61985;51.070;14.064;2022-07-29T12:30:41;7.15;;;4.05;;
73684;SDS011;61985;51.070;14.064;2022-07-29T12:33:15;9.23;;;4.55;;
73684;SDS011;61985;51.070;14.064;2022-07-29T12:35:59;12.07;;;6.95;;
73684;SDS011;61985;51.070;14.064;2022-07-29T12:38:25;18.05;;;8.35;;
73684;SDS011;61985;51.070;14.064;2022-07-29T12:40:52;19.90;;;12.00;;
73684;SDS011;61985;51.070;14.064;2022-07-29T12:43:20;26.13;;;13.13;;
73684;SDS011;61985;51.070;14.064;2022-07-29T12:45:48;23.65;;;12.23;;
73684;SDS011;61985;51.070;14.064;2022-07-29T12:48:15;11.63;;;6.40;;
73684;SDS011;61985;51.070;14.064;2022-07-29T12:53:22;15.75;;;7.97;;
73684;SDS011;61985;51.070;14.064;2022-07-29T12:55:48;18.13;;;8.25;;
73684;SDS011;61985;51.070;14.064;2022-07-29T13:03:41;12.40;;;7.10;;
73684;SDS011;61985;51.070;14.064;2022-07-29T13:06:27;11.25;;;6.07;;
73684;SDS011;61985;51.070;14.064;2022-07-29T13:09:10;10.88;;;4.32;;
73684;SDS011;61985;51.070;14.064;2022-07-29T13:14:08;12.95;;;5.75;;
73684;SDS011;61985;51.070;14.064;2022-07-29T13:16:35;12.82;;;5.93;;
73684;SDS011;61985;51.070;14.064;2022-07-29T13:19:11;13.13;;;5.32;;
73684;SDS011;61985;51.070;14.064;2022-07-29T13:21:37;11.68;;;6.20;;
73684;SDS011;61985;51.070;14.064;2022-07-29T13:24:04;10.18;;;6.30;;
73684;SDS011;61985;51.070;14.064;2022-07-29T13:26:33;11.05;;;5.63;;
73684;SDS011;61985;51.070;14.064;2022-07-29T13:28:58;12.38;;;6.00;;
73684;SDS011;61985;51.070;14.064;2022-07-29T13:31:24;16.15;;;8.65;;
73684;SDS011;61985;51.070;14.064;2022-07-29T13:33:49;15.10;;;8.38;;
73684;SDS011;61985;51.070;14.064;2022-07-29T13:36:18;15.93;;;9.57;;
73684;SDS011;61985;51.070;14.064;2022-07-29T13:38:43;15.65;;;9.63;;
73684;SDS011;61985;51.070;14.064;2022-07-29T13:41:09;18.92;;;11.00;;
73684;SDS011;61985;51.070;14.064;2022-07-29T13:43:37;17.25;;;9.80;;
73684;SDS011;61985;51.070;14.064;2022-07-29T13:46:05;15.00;;;6.90;;
73684;SDS011;61985;51.070;14.064;2022-07-29T13:48:30;14.10;;;7.28;;
73684;SDS011;61985;51.070;14.064;2022-07-29T13:50:58;10.55;;;6.35;;
73684;SDS011;61985;51.070;14.064;2022-07-29T13:53:23;11.15;;;6.38;;
73684;SDS011;61985;51.070;14.064;2022-07-29T13:55:49;16.52;;;7.10;;
73684;SDS011;61985;51.070;14.064;2022-07-29T13:58:16;23.45;;;6.18;;
73684;SDS011;61985;51.070;14.064;2022-07-29T14:00:41;10.43;;;6.20;;
73684;SDS011;61985;51.070;14.064;2022-07-29T14:03:10;9.30;;;4.38;;
73684;SDS011;61985;51.070;14.064;2022-07-29T14:05:35;7.45;;;4.80;;
73684;SDS011;61985;51.070;14.064;2022-07-29T14:08:03;10.98;;;4.95;;
73684;SDS011;61985;51.070;14.064;2022-07-29T14:10:29;9.30;;;5.00;;
73684;SDS011;61985;51.070;14.064;2022-07-29T14:12:57;10.55;;;5.20;;
73684;SDS011;61985;51.070;14.064;2022-07-29T14:15:40;16.70;;;5.32;;
73684;SDS011;61985;51.070;14.064;2022-07-29T14:18:11;10.07;;;5.78;;
73684;SDS011;61985;51.070;14.064;2022-07-29T14:20:37;6.85;;;4.40;;
73684;SDS011;61985;51.070;14.064;2022-07-29T14:23:05;7.68;;;4.40;;
73684;SDS011;61985;51.070;14.064;2022-07-29T14:25:31;7.38;;;4.55;;
73684;SDS011;61985;51.070;14.064;2022-07-29T14:27:57;10.27;;;5.10;;
73684;SDS011;61985;51.070;14.064;2022-07-29T14:30:28;7.15;;;4.72;;
73684;SDS011;61985;51.070;14.064;2022-07-29T14:32:53;9.70;;;4.68;;
73684;SDS011;61985;51.070;14.064;2022-07-29T14:35:19;6.82;;;4.13;;
73684;SDS011;61985;51.070;14.064;2022-07-29T14:37:44;7.68;;;4.50;;
73684;SDS011;61985;51.070;14.064;2022-07-29T14:40:10;11.23;;;4.60;;
73684;SDS011;61985;51.070;14.064;2022-07-29T14:42:36;12.93;;;5.05;;
73684;SDS011;61985;51.070;14.064;2022-07-29T14:45:03;14.77;;;5.03;;
73684;SDS011;61985;51.070;14.064;2022-07-29T14:47:31;7.38;;;4.40;;
73684;SDS011;61985;51.070;14.064;2022-07-29T14:49:57;13.50;;;5.10;;
73684;SDS011;61985;51.070;14.064;2022-07-29T14:52:23;8.57;;;5.13;;
73684;SDS011;61985;51.070;14.064;2022-07-29T14:54:50;8.18;;;4.55;;
73684;SDS011;61985;51.070;14.064;2022-07-29T14:57:16;7.07;;;4.60;;
73684;SDS011;61985;51.070;14.064;2022-07-29T14:59:41;15.85;;;5.75;;
73684;SDS011;61985;51.070;14.064;2022-07-29T15:02:07;8.35;;;4.80;;
73684;SDS011;61985;51.070;14.064;2022-07-29T15:04:34;7.97;;;4.85;;
73684;SDS011;61985;51.070;14.064;2022-07-29T15:06:59;6.70;;;4.20;;
73684;SDS011;61985;51.070;14.064;2022-07-29T15:09:27;11.45;;;4.68;;
73684;SDS011;61985;51.070;14.064;2022-07-29T15:11:53;8.35;;;4.20;;
73684;SDS011;61985;51.070;14.064;2022-07-29T15:14:18;7.68;;;4.05;;
73684;SDS011;61985;51.070;14.064;2022-07-29T15:16:44;9.88;;;4.70;;
73684;SDS011;61985;51.070;14.064;2022-07-29T15:19:10;8.20;;;3.80;;
73684;SDS011;61985;51.070;14.064;2022-07-29T15:21:36;7.00;;;3.75;;
73684;SDS011;61985;51.070;14.064;2022-07-29T15:24:01;4.47;;;3.10;;
73684;SDS011;61985;51.070;14.064;2022-07-29T15:26:27;7.15;;;3.80;;
73684;SDS011;61985;51.070;14.064;2022-07-29T15:28:55;11.35;;;4.30;;
73684;SDS011;61985;51.070;14.064;2022-07-29T15:31:21;5.13;;;3.35;;
73684;SDS011;61985;51.070;14.064;2022-07-29T15:33:47;9.55;;;4.40;;
73684;SDS011;61985;51.070;14.064;2022-07-29T15:36:14;8.60;;;4.35;;
73684;SDS011;61985;51.070;14.064;2022-07-29T15:38:40;9.48;;;4.78;;
73684;SDS011;61985;51.070;14.064;2022-07-29T15:41:12;7.35;;;4.45;;
73684;SDS011;61985;51.070;14.064;2022-07-29T15:43:42;10.07;;;4.43;;
73684;SDS011;61985;51.070;14.064;2022-07-29T15:46:08;5.95;;;3.00;;
73684;SDS011;61985;51.070;14.064;2022-07-29T15:48:56;6.70;;;2.92;;
73684;SDS011;61985;51.070;14.064;2022-07-29T15:51:22;5.03;;;2.80;;
73684;SDS011;61985;51.070;14.064;2022-07-29T15:53:47;7.72;;;3.33;;